KSBP/SBP METAR and TAF weather

Enter ICAO airport designator
Station Type Date Time Source
KSBP METAR 2022/01/26 19:56 UTC NOAA

KSBP 261956Z 31003KT 10SM CLR 18/06 A3012 RMK AO2 SLP199 T01780056


Station Type Date Time Source
KSBP Decoded METAR 2022/01/26 19:56 UTC NOAA

SAN LUIS OBISPO MC CHESNEY, CA, United States (KSBP) 35-14N 120-38W 59M
Jan 26, 2022 - 02:56 PM EST / 2022.01.26 1956 UTC
Wind: from the NW (310 degrees) at 3 MPH (3 KT):0
Visibility: 10 mile(s):0
Sky conditions: clear
Temperature: 64.0 F (17.8 C)
Dew Point: 42.1 F (5.6 C)
Relative Humidity: 44%
Pressure (altimeter): 30.12 in. Hg (1019 hPa)
ob: KSBP 261956Z 31003KT 10SM CLR 18/06 A3012 RMK AO2 SLP199 T01780056
cycle: 20

Station Type Date Time Source
KSBP TAF 2022/01/26 18:36 UTC NOAA

TAF KSBP 261735Z 2618/2718 00000KT P6SM SCT002
FM262100 32008KT P6SM SKC
FM270200 VRB03KT P6SM SKC
FM270900 00000KT P6SM SKC

Example: see airport list